Avon, North Carolina
Current Conditions -  °F | °C
As of 12:51 PM on Tuesday 21 Oct 2014 (Local Time) from KHSE Reporting Station
Clear Clear  
Wind Chill: 71°   Ceiling: Unl
Heat Index: 71°   Visibility: 10mi
Dew Point: 60°   Wind: 7mph
Humidity: 68%   Direction: 270°W
Pressure: 29.89"   Gusts: NA
Location:  35.35°N, 75.51°W
Report Text: KHSE 211651Z AUTO 27006KT 10SM CLR 22/16 A2989 RMK AO2 SLP119 T02170156 TSNO
Loading
Personal Weather Stations






























Interactive Weather Map New forecast layout! Learn more

10-Day Weather Forecast

Advertisements
Track Severe Weather on mobile